sensor_id;sensor_type;location;lat;lon;timestamp;P1;durP1;ratioP1;P2;durP2;ratioP2
14526;SDS011;7350;51.208;4.238;2023-05-10T00:35:54;3.42;;;2.60;;
14526;SDS011;7350;51.208;4.238;2023-05-10T00:44:28;2.42;;;2.20;;
14526;SDS011;7350;51.208;4.238;2023-05-10T00:46:55;2.80;;;2.10;;
14526;SDS011;7350;51.208;4.238;2023-05-10T00:49:23;2.38;;;2.17;;
14526;SDS011;7350;51.208;4.238;2023-05-10T00:51:51;2.97;;;2.65;;
14526;SDS011;7350;51.208;4.238;2023-05-10T00:54:18;2.97;;;2.67;;
14526;SDS011;7350;51.208;4.238;2023-05-10T00:56:45;2.70;;;2.50;;
14526;SDS011;7350;51.208;4.238;2023-05-10T00:59:14;2.90;;;2.70;;
14526;SDS011;7350;51.208;4.238;2023-05-10T01:01:42;2.42;;;2.22;;
14526;SDS011;7350;51.208;4.238;2023-05-10T01:04:13;3.28;;;2.80;;
14526;SDS011;7350;51.208;4.238;2023-05-10T01:06:41;2.90;;;2.65;;
14526;SDS011;7350;51.208;4.238;2023-05-10T01:09:09;3.22;;;2.80;;
14526;SDS011;7350;51.208;4.238;2023-05-10T01:11:38;2.85;;;2.50;;
14526;SDS011;7350;51.208;4.238;2023-05-10T01:14:05;2.88;;;2.58;;
14526;SDS011;7350;51.208;4.238;2023-05-10T01:16:33;3.03;;;2.72;;
14526;SDS011;7350;51.208;4.238;2023-05-10T01:19:03;2.67;;;2.47;;
14526;SDS011;7350;51.208;4.238;2023-05-10T01:21:37;2.95;;;2.65;;
14526;SDS011;7350;51.208;4.238;2023-05-10T01:30:25;3.10;;;2.83;;
14526;SDS011;7350;51.208;4.238;2023-05-10T01:33:11;3.15;;;2.85;;
14526;SDS011;7350;51.208;4.238;2023-05-10T01:35:47;3.00;;;2.70;;
14526;SDS011;7350;51.208;4.238;2023-05-10T01:38:22;3.00;;;2.67;;
14526;SDS011;7350;51.208;4.238;2023-05-10T01:41:05;2.85;;;2.65;;
14526;SDS011;7350;51.208;4.238;2023-05-10T01:43:42;3.30;;;3.00;;
14526;SDS011;7350;51.208;4.238;2023-05-10T01:46:16;2.67;;;2.47;;
14526;SDS011;7350;51.208;4.238;2023-05-10T01:48:48;3.03;;;2.72;;
14526;SDS011;7350;51.208;4.238;2023-05-10T01:51:21;3.15;;;2.85;;
14526;SDS011;7350;51.208;4.238;2023-05-10T01:53:50;3.45;;;2.90;;
14526;SDS011;7350;51.208;4.238;2023-05-10T01:56:21;3.30;;;3.00;;
14526;SDS011;7350;51.208;4.238;2023-05-10T01:58:50;2.97;;;2.67;;
14526;SDS011;7350;51.208;4.238;2023-05-10T02:01:19;3.42;;;2.92;;
14526;SDS011;7350;51.208;4.238;2023-05-10T02:03:53;3.13;;;2.75;;
14526;SDS011;7350;51.208;4.238;2023-05-10T02:06:21;3.33;;;3.00;;
14526;SDS011;7350;51.208;4.238;2023-05-10T02:08:50;3.08;;;2.70;;
14526;SDS011;7350;51.208;4.238;2023-05-10T02:11:19;2.90;;;2.67;;
14526;SDS011;7350;51.208;4.238;2023-05-10T02:13:47;3.20;;;2.83;;
14526;SDS011;7350;51.208;4.238;2023-05-10T02:16:16;4.03;;;3.63;;
14526;SDS011;7350;51.208;4.238;2023-05-10T02:18:44;4.00;;;3.60;;
14526;SDS011;7350;51.208;4.238;2023-05-10T02:21:13;3.83;;;3.45;;
14526;SDS011;7350;51.208;4.238;2023-05-10T02:23:42;4.03;;;3.53;;
14526;SDS011;7350;51.208;4.238;2023-05-10T02:26:09;3.28;;;3.03;;
14526;SDS011;7350;51.208;4.238;2023-05-10T02:28:38;3.50;;;3.20;;
14526;SDS011;7350;51.208;4.238;2023-05-10T02:31:06;3.58;;;3.28;;
14526;SDS011;7350;51.208;4.238;2023-05-10T02:33:35;4.53;;;3.53;;
14526;SDS011;7350;51.208;4.238;2023-05-10T02:36:05;3.60;;;3.30;;
14526;SDS011;7350;51.208;4.238;2023-05-10T02:38:35;3.72;;;3.42;;
14526;SDS011;7350;51.208;4.238;2023-05-10T02:41:03;4.10;;;3.70;;
14526;SDS011;7350;51.208;4.238;2023-05-10T02:43:31;4.25;;;3.85;;
14526;SDS011;7350;51.208;4.238;2023-05-10T02:45:59;5.18;;;4.68;;
14526;SDS011;7350;51.208;4.238;2023-05-10T02:48:26;4.68;;;4.28;;
14526;SDS011;7350;51.208;4.238;2023-05-10T02:50:54;5.35;;;4.85;;
14526;SDS011;7350;51.208;4.238;2023-05-10T02:53:30;6.38;;;5.05;;
14526;SDS011;7350;51.208;4.238;2023-05-10T02:56:01;5.20;;;4.70;;
14526;SDS011;7350;51.208;4.238;2023-05-10T02:58:35;5.22;;;4.72;;
14526;SDS011;7350;51.208;4.238;2023-05-10T03:01:02;5.53;;;4.95;;
14526;SDS011;7350;51.208;4.238;2023-05-10T03:03:29;6.03;;;5.47;;
14526;SDS011;7350;51.208;4.238;2023-05-10T03:05:56;5.65;;;5.10;;
14526;SDS011;7350;51.208;4.238;2023-05-10T03:08:23;6.57;;;5.80;;
14526;SDS011;7350;51.208;4.238;2023-05-10T03:10:54;6.93;;;6.28;;
14526;SDS011;7350;51.208;4.238;2023-05-10T03:13:39;6.32;;;5.53;;
14526;SDS011;7350;51.208;4.238;2023-05-10T03:16:12;6.55;;;5.95;;
14526;SDS011;7350;51.208;4.238;2023-05-10T03:18:44;7.47;;;6.55;;
14526;SDS011;7350;51.208;4.238;2023-05-10T03:21:14;7.30;;;6.60;;
14526;SDS011;7350;51.208;4.238;2023-05-10T03:23:46;7.30;;;6.60;;
14526;SDS011;7350;51.208;4.238;2023-05-10T03:26:17;7.90;;;7.10;;
14526;SDS011;7350;51.208;4.238;2023-05-10T03:28:48;7.90;;;7.10;;
14526;SDS011;7350;51.208;4.238;2023-05-10T03:31:15;7.95;;;7.20;;
14526;SDS011;7350;51.208;4.238;2023-05-10T03:33:46;8.02;;;7.22;;
14526;SDS011;7350;51.208;4.238;2023-05-10T03:36:14;9.85;;;7.22;;
14526;SDS011;7350;51.208;4.238;2023-05-10T03:38:41;8.50;;;7.70;;
14526;SDS011;7350;51.208;4.238;2023-05-10T03:41:08;8.80;;;7.85;;
14526;SDS011;7350;51.208;4.238;2023-05-10T03:43:35;7.95;;;7.13;;
14526;SDS011;7350;51.208;4.238;2023-05-10T03:46:03;7.90;;;7.20;;
14526;SDS011;7350;51.208;4.238;2023-05-10T03:48:31;8.77;;;7.97;;
14526;SDS011;7350;51.208;4.238;2023-05-10T03:50:58;8.43;;;7.63;;
14526;SDS011;7350;51.208;4.238;2023-05-10T03:53:25;8.07;;;7.28;;
14526;SDS011;7350;51.208;4.238;2023-05-10T03:55:52;10.35;;;8.23;;
14526;SDS011;7350;51.208;4.238;2023-05-10T03:58:19;8.80;;;7.53;;
14526;SDS011;7350;51.208;4.238;2023-05-10T04:00:46;8.82;;;7.95;;
14526;SDS011;7350;51.208;4.238;2023-05-10T04:03:15;9.18;;;8.27;;
14526;SDS011;7350;51.208;4.238;2023-05-10T04:05:42;8.60;;;7.80;;
14526;SDS011;7350;51.208;4.238;2023-05-10T04:08:09;9.00;;;8.10;;
14526;SDS011;7350;51.208;4.238;2023-05-10T04:10:36;8.18;;;7.38;;
14526;SDS011;7350;51.208;4.238;2023-05-10T04:13:03;8.93;;;8.02;;
14526;SDS011;7350;51.208;4.238;2023-05-10T04:15:30;8.52;;;7.63;;
14526;SDS011;7350;51.208;4.238;2023-05-10T04:17:57;10.18;;;9.18;;
14526;SDS011;7350;51.208;4.238;2023-05-10T04:20:26;10.05;;;9.05;;
14526;SDS011;7350;51.208;4.238;2023-05-10T04:22:52;9.15;;;8.25;;
14526;SDS011;7350;51.208;4.238;2023-05-10T04:25:19;9.70;;;8.65;;
14526;SDS011;7350;51.208;4.238;2023-05-10T04:27:46;9.60;;;8.55;;
14526;SDS011;7350;51.208;4.238;2023-05-10T04:30:13;10.18;;;9.15;;
14526;SDS011;7350;51.208;4.238;2023-05-10T04:32:40;9.25;;;8.23;;
14526;SDS011;7350;51.208;4.238;2023-05-10T04:35:07;9.63;;;8.65;;
14526;SDS011;7350;51.208;4.238;2023-05-10T04:37:37;9.95;;;8.95;;
14526;SDS011;7350;51.208;4.238;2023-05-10T04:40:04;10.25;;;9.25;;
14526;SDS011;7350;51.208;4.238;2023-05-10T04:42:32;9.95;;;8.98;;
14526;SDS011;7350;51.208;4.238;2023-05-10T04:44:59;10.18;;;9.15;;
14526;SDS011;7350;51.208;4.238;2023-05-10T04:47:26;10.20;;;9.18;;
14526;SDS011;7350;51.208;4.238;2023-05-10T04:49:53;10.75;;;9.73;;
14526;SDS011;7350;51.208;4.238;2023-05-10T04:52:19;9.77;;;8.88;;
14526;SDS011;7350;51.208;4.238;2023-05-10T04:54:48;9.30;;;8.40;;
14526;SDS011;7350;51.208;4.238;2023-05-10T04:57:15;10.75;;;9.68;;
14526;SDS011;7350;51.208;4.238;2023-05-10T04:59:42;9.90;;;8.93;;
14526;SDS011;7350;51.208;4.238;2023-05-10T05:02:09;9.80;;;8.90;;
14526;SDS011;7350;51.208;4.238;2023-05-10T05:04:36;10.00;;;9.05;;
14526;SDS011;7350;51.208;4.238;2023-05-10T05:07:03;10.70;;;9.70;;
14526;SDS011;7350;51.208;4.238;2023-05-10T05:09:30;10.23;;;9.13;;
14526;SDS011;7350;51.208;4.238;2023-05-10T05:11:59;10.00;;;9.02;;
14526;SDS011;7350;51.208;4.238;2023-05-10T05:14:26;11.15;;;9.52;;
14526;SDS011;7350;51.208;4.238;2023-05-10T05:16:53;11.55;;;10.02;;
14526;SDS011;7350;51.208;4.238;2023-05-10T05:19:20;10.90;;;9.80;;
14526;SDS011;7350;51.208;4.238;2023-05-10T05:21:47;13.85;;;11.07;;
14526;SDS011;7350;51.208;4.238;2023-05-10T05:24:14;13.52;;;12.13;;
14526;SDS011;7350;51.208;4.238;2023-05-10T05:26:48;15.38;;;13.23;;
14526;SDS011;7350;51.208;4.238;2023-05-10T05:29:16;16.55;;;14.15;;
14526;SDS011;7350;51.208;4.238;2023-05-10T05:31:43;16.08;;;14.45;;
14526;SDS011;7350;51.208;4.238;2023-05-10T05:34:10;16.40;;;14.63;;
14526;SDS011;7350;51.208;4.238;2023-05-10T05:36:37;18.13;;;16.33;;
14526;SDS011;7350;51.208;4.238;2023-05-10T05:39:04;17.90;;;15.88;;
14526;SDS011;7350;51.208;4.238;2023-05-10T05:41:31;16.13;;;14.40;;
14526;SDS011;7350;51.208;4.238;2023-05-10T05:43:58;18.42;;;16.63;;
14526;SDS011;7350;51.208;4.238;2023-05-10T05:46:26;17.00;;;15.15;;
14526;SDS011;7350;51.208;4.238;2023-05-10T05:48:53;17.00;;;15.10;;
14526;SDS011;7350;51.208;4.238;2023-05-10T05:51:20;17.73;;;15.95;;
14526;SDS011;7350;51.208;4.238;2023-05-10T05:53:47;17.42;;;15.63;;
14526;SDS011;7350;51.208;4.238;2023-05-10T05:56:14;15.75;;;14.25;;
14526;SDS011;7350;51.208;4.238;2023-05-10T05:58:42;15.95;;;14.43;;
14526;SDS011;7350;51.208;4.238;2023-05-10T06:01:09;17.27;;;15.50;;
14526;SDS011;7350;51.208;4.238;2023-05-10T06:03:38;16.13;;;14.43;;
14526;SDS011;7350;51.208;4.238;2023-05-10T06:06:05;15.35;;;13.93;;
14526;SDS011;7350;51.208;4.238;2023-05-10T06:08:32;16.83;;;15.02;;
14526;SDS011;7350;51.208;4.238;2023-05-10T06:10:59;15.15;;;13.65;;
14526;SDS011;7350;51.208;4.238;2023-05-10T06:13:26;15.68;;;14.18;;
14526;SDS011;7350;51.208;4.238;2023-05-10T06:15:57;16.20;;;14.18;;
14526;SDS011;7350;51.208;4.238;2023-05-10T06:18:23;13.75;;;12.43;;
14526;SDS011;7350;51.208;4.238;2023-05-10T06:20:52;15.73;;;14.07;;
14526;SDS011;7350;51.208;4.238;2023-05-10T06:23:19;13.15;;;11.85;;
14526;SDS011;7350;51.208;4.238;2023-05-10T06:25:47;15.15;;;13.32;;
14526;SDS011;7350;51.208;4.238;2023-05-10T06:28:14;15.45;;;13.85;;
14526;SDS011;7350;51.208;4.238;2023-05-10T06:30:41;15.05;;;13.65;;
14526;SDS011;7350;51.208;4.238;2023-05-10T06:33:08;14.77;;;13.30;;
14526;SDS011;7350;51.208;4.238;2023-05-10T06:35:35;14.85;;;13.30;;
14526;SDS011;7350;51.208;4.238;2023-05-10T06:38:03;14.45;;;13.05;;
14526;SDS011;7350;51.208;4.238;2023-05-10T06:40:32;13.25;;;11.95;;
14526;SDS011;7350;51.208;4.238;2023-05-10T06:42:59;12.43;;;11.25;;
14526;SDS011;7350;51.208;4.238;2023-05-10T06:45:26;14.15;;;12.15;;
14526;SDS011;7350;51.208;4.238;2023-05-10T06:47:53;12.93;;;11.63;;
14526;SDS011;7350;51.208;4.238;2023-05-10T06:50:20;13.88;;;12.57;;
14526;SDS011;7350;51.208;4.238;2023-05-10T06:52:47;12.20;;;11.10;;
14526;SDS011;7350;51.208;4.238;2023-05-10T06:55:15;13.27;;;11.98;;
14526;SDS011;7350;51.208;4.238;2023-05-10T06:57:42;13.25;;;12.05;;
14526;SDS011;7350;51.208;4.238;2023-05-10T07:00:09;13.45;;;12.10;;
14526;SDS011;7350;51.208;4.238;2023-05-10T07:02:36;13.77;;;12.32;;
14526;SDS011;7350;51.208;4.238;2023-05-10T07:05:04;13.23;;;11.77;;
14526;SDS011;7350;51.208;4.238;2023-05-10T07:07:31;12.98;;;11.77;;
14526;SDS011;7350;51.208;4.238;2023-05-10T07:09:58;12.27;;;11.07;;
14526;SDS011;7350;51.208;4.238;2023-05-10T07:12:26;12.30;;;11.20;;
14526;SDS011;7350;51.208;4.238;2023-05-10T07:14:53;11.48;;;10.43;;
14526;SDS011;7350;51.208;4.238;2023-05-10T07:17:20;11.57;;;10.52;;
14526;SDS011;7350;51.208;4.238;2023-05-10T07:19:47;11.07;;;9.98;;
14526;SDS011;7350;51.208;4.238;2023-05-10T07:22:14;10.63;;;9.52;;
14526;SDS011;7350;51.208;4.238;2023-05-10T07:24:42;10.75;;;9.68;;
14526;SDS011;7350;51.208;4.238;2023-05-10T07:27:09;10.02;;;9.02;;
14526;SDS011;7350;51.208;4.238;2023-05-10T07:29:38;10.32;;;8.65;;
14526;SDS011;7350;51.208;4.238;2023-05-10T07:32:05;9.98;;;8.88;;
14526;SDS011;7350;51.208;4.238;2023-05-10T07:34:32;9.77;;;8.85;;
14526;SDS011;7350;51.208;4.238;2023-05-10T07:36:59;8.85;;;8.05;;
14526;SDS011;7350;51.208;4.238;2023-05-10T07:39:26;9.50;;;8.50;;
14526;SDS011;7350;51.208;4.238;2023-05-10T07:41:53;9.93;;;9.02;;
14526;SDS011;7350;51.208;4.238;2023-05-10T07:44:20;8.70;;;7.85;;
14526;SDS011;7350;51.208;4.238;2023-05-10T07:46:49;8.40;;;7.70;;
14526;SDS011;7350;51.208;4.238;2023-05-10T07:49:16;9.38;;;8.02;;
14526;SDS011;7350;51.208;4.238;2023-05-10T07:51:43;7.82;;;6.93;;
14526;SDS011;7350;51.208;4.238;2023-05-10T07:54:10;8.75;;;7.97;;
14526;SDS011;7350;51.208;4.238;2023-05-10T07:56:37;8.48;;;7.50;;
14526;SDS011;7350;51.208;4.238;2023-05-10T07:59:06;8.50;;;7.70;;
14526;SDS011;7350;51.208;4.238;2023-05-10T08:01:34;7.97;;;7.22;;
14526;SDS011;7350;51.208;4.238;2023-05-10T08:04:02;8.45;;;7.65;;
14526;SDS011;7350;51.208;4.238;2023-05-10T08:06:29;9.43;;;8.20;;
14526;SDS011;7350;51.208;4.238;2023-05-10T08:08:56;9.18;;;8.30;;
14526;SDS011;7350;51.208;4.238;2023-05-10T08:11:23;9.40;;;8.30;;
14526;SDS011;7350;51.208;4.238;2023-05-10T08:13:50;9.60;;;8.55;;
14526;SDS011;7350;51.208;4.238;2023-05-10T08:16:17;9.48;;;8.57;;
14526;SDS011;7350;51.208;4.238;2023-05-10T08:18:45;9.85;;;8.90;;
14526;SDS011;7350;51.208;4.238;2023-05-10T08:21:15;10.95;;;8.85;;
14526;SDS011;7350;51.208;4.238;2023-05-10T08:23:42;9.68;;;8.70;;
14526;SDS011;7350;51.208;4.238;2023-05-10T08:26:09;10.27;;;9.23;;
14526;SDS011;7350;51.208;4.238;2023-05-10T08:28:36;12.55;;;9.13;;
14526;SDS011;7350;51.208;4.238;2023-05-10T08:31:04;11.13;;;9.15;;
14526;SDS011;7350;51.208;4.238;2023-05-10T08:33:31;10.85;;;8.95;;
14526;SDS011;7350;51.208;4.238;2023-05-10T08:35:58;12.05;;;9.85;;
14526;SDS011;7350;51.208;4.238;2023-05-10T08:38:26;12.93;;;10.20;;
14526;SDS011;7350;51.208;4.238;2023-05-10T08:40:54;15.40;;;11.77;;
14526;SDS011;7350;51.208;4.238;2023-05-10T08:43:23;16.73;;;12.02;;
14526;SDS011;7350;51.208;4.238;2023-05-10T08:45:54;17.02;;;12.15;;
14526;SDS011;7350;51.208;4.238;2023-05-10T08:48:23;15.98;;;11.57;;
14526;SDS011;7350;51.208;4.238;2023-05-10T08:50:52;17.30;;;12.45;;
14526;SDS011;7350;51.208;4.238;2023-05-10T08:53:20;17.67;;;12.27;;
14526;SDS011;7350;51.208;4.238;2023-05-10T08:55:51;17.20;;;12.05;;
14526;SDS011;7350;51.208;4.238;2023-05-10T08:58:18;17.63;;;11.50;;
14526;SDS011;7350;51.208;4.238;2023-05-10T09:00:46;14.75;;;10.48;;
14526;SDS011;7350;51.208;4.238;2023-05-10T09:03:15;15.82;;;10.77;;
14526;SDS011;7350;51.208;4.238;2023-05-10T09:05:42;17.45;;;11.43;;
14526;SDS011;7350;51.208;4.238;2023-05-10T09:08:09;15.02;;;10.00;;
14526;SDS011;7350;51.208;4.238;2023-05-10T09:10:38;12.32;;;10.10;;
14526;SDS011;7350;51.208;4.238;2023-05-10T09:13:08;14.55;;;10.13;;
14526;SDS011;7350;51.208;4.238;2023-05-10T09:15:36;14.48;;;9.95;;
14526;SDS011;7350;51.208;4.238;2023-05-10T09:18:04;13.55;;;10.38;;
14526;SDS011;7350;51.208;4.238;2023-05-10T09:20:31;11.82;;;10.13;;
14526;SDS011;7350;51.208;4.238;2023-05-10T09:22:58;12.82;;;9.90;;
14526;SDS011;7350;51.208;4.238;2023-05-10T09:25:24;14.05;;;9.60;;
14526;SDS011;7350;51.208;4.238;2023-05-10T09:27:52;14.02;;;10.20;;
14526;SDS011;7350;51.208;4.238;2023-05-10T09:30:24;14.00;;;10.88;;
14526;SDS011;7350;51.208;4.238;2023-05-10T09:32:52;13.75;;;9.50;;
14526;SDS011;7350;51.208;4.238;2023-05-10T09:35:20;13.10;;;10.35;;
14526;SDS011;7350;51.208;4.238;2023-05-10T09:37:50;13.20;;;10.10;;
14526;SDS011;7350;51.208;4.238;2023-05-10T09:40:20;13.25;;;9.95;;
14526;SDS011;7350;51.208;4.238;2023-05-10T09:42:52;12.77;;;10.07;;
14526;SDS011;7350;51.208;4.238;2023-05-10T09:45:20;13.80;;;10.35;;
14526;SDS011;7350;51.208;4.238;2023-05-10T09:47:49;11.60;;;9.60;;
14526;SDS011;7350;51.208;4.238;2023-05-10T09:50:16;14.70;;;10.23;;
14526;SDS011;7350;51.208;4.238;2023-05-10T09:52:47;14.05;;;10.30;;
14526;SDS011;7350;51.208;4.238;2023-05-10T09:55:16;11.40;;;9.48;;
14526;SDS011;7350;51.208;4.238;2023-05-10T09:57:44;14.00;;;10.77;;
14526;SDS011;7350;51.208;4.238;2023-05-10T10:00:15;11.73;;;9.43;;
14526;SDS011;7350;51.208;4.238;2023-05-10T10:02:44;13.57;;;11.30;;
14526;SDS011;7350;51.208;4.238;2023-05-10T10:05:14;12.05;;;9.50;;
14526;SDS011;7350;51.208;4.238;2023-05-10T10:07:41;12.90;;;10.35;;
14526;SDS011;7350;51.208;4.238;2023-05-10T10:10:09;13.10;;;9.55;;
14526;SDS011;7350;51.208;4.238;2023-05-10T10:12:39;11.00;;;9.35;;
14526;SDS011;7350;51.208;4.238;2023-05-10T10:15:07;11.48;;;9.25;;
14526;SDS011;7350;51.208;4.238;2023-05-10T10:17:35;10.45;;;8.80;;
14526;SDS011;7350;51.208;4.238;2023-05-10T10:20:04;11.52;;;8.63;;
14526;SDS011;7350;51.208;4.238;2023-05-10T10:22:33;10.40;;;8.73;;
14526;SDS011;7350;51.208;4.238;2023-05-10T10:25:00;12.15;;;9.00;;
14526;SDS011;7350;51.208;4.238;2023-05-10T10:27:28;10.32;;;8.88;;
14526;SDS011;7350;51.208;4.238;2023-05-10T10:30:09;10.93;;;9.02;;
14526;SDS011;7350;51.208;4.238;2023-05-10T10:32:47;10.20;;;8.80;;
14526;SDS011;7350;51.208;4.238;2023-05-10T10:35:28;9.63;;;8.18;;
14526;SDS011;7350;51.208;4.238;2023-05-10T10:37:58;9.73;;;8.05;;
14526;SDS011;7350;51.208;4.238;2023-05-10T10:40:25;10.13;;;8.27;;
14526;SDS011;7350;51.208;4.238;2023-05-10T10:42:53;8.80;;;7.90;;
14526;SDS011;7350;51.208;4.238;2023-05-10T10:45:21;8.95;;;8.05;;
14526;SDS011;7350;51.208;4.238;2023-05-10T10:47:53;10.88;;;8.90;;
14526;SDS011;7350;51.208;4.238;2023-05-10T10:50:43;9.70;;;7.75;;
14526;SDS011;7350;51.208;4.238;2023-05-10T10:53:12;8.82;;;7.93;;
14526;SDS011;7350;51.208;4.238;2023-05-10T10:55:45;9.45;;;8.10;;
14526;SDS011;7350;51.208;4.238;2023-05-10T10:58:28;8.30;;;7.10;;
14526;SDS011;7350;51.208;4.238;2023-05-10T11:01:08;8.10;;;7.30;;
14526;SDS011;7350;51.208;4.238;2023-05-10T11:03:39;9.30;;;7.68;;
14526;SDS011;7350;51.208;4.238;2023-05-10T11:06:06;9.23;;;7.28;;
14526;SDS011;7350;51.208;4.238;2023-05-10T11:08:41;10.60;;;7.57;;
14526;SDS011;7350;51.208;4.238;2023-05-10T11:11:09;8.65;;;6.97;;
14526;SDS011;7350;51.208;4.238;2023-05-10T11:13:40;9.07;;;7.25;;
14526;SDS011;7350;51.208;4.238;2023-05-10T11:16:12;8.95;;;7.05;;
14526;SDS011;7350;51.208;4.238;2023-05-10T11:18:51;10.35;;;7.28;;
14526;SDS011;7350;51.208;4.238;2023-05-10T11:21:26;8.02;;;6.45;;
14526;SDS011;7350;51.208;4.238;2023-05-10T11:23:55;8.30;;;7.13;;
14526;SDS011;7350;51.208;4.238;2023-05-10T11:26:23;7.40;;;6.70;;
14526;SDS011;7350;51.208;4.238;2023-05-10T11:28:51;10.13;;;6.85;;
14526;SDS011;7350;51.208;4.238;2023-05-10T11:31:21;8.52;;;7.65;;
14526;SDS011;7350;51.208;4.238;2023-05-10T11:33:52;8.52;;;7.63;;
14526;SDS011;7350;51.208;4.238;2023-05-10T11:36:20;7.90;;;7.10;;
14526;SDS011;7350;51.208;4.238;2023-05-10T11:38:50;7.82;;;6.57;;
14526;SDS011;7350;51.208;4.238;2023-05-10T11:41:19;7.45;;;6.70;;
14526;SDS011;7350;51.208;4.238;2023-05-10T11:43:49;7.13;;;6.43;;
14526;SDS011;7350;51.208;4.238;2023-05-10T11:46:18;7.22;;;6.30;;
14526;SDS011;7350;51.208;4.238;2023-05-10T11:48:46;7.57;;;6.55;;
14526;SDS011;7350;51.208;4.238;2023-05-10T11:51:19;9.68;;;5.95;;
14526;SDS011;7350;51.208;4.238;2023-05-10T11:53:47;7.68;;;6.00;;
14526;SDS011;7350;51.208;4.238;2023-05-10T11:56:15;6.88;;;6.28;;
14526;SDS011;7350;51.208;4.238;2023-05-10T11:58:43;8.23;;;6.25;;
14526;SDS011;7350;51.208;4.238;2023-05-10T12:01:12;8.25;;;6.28;;
14526;SDS011;7350;51.208;4.238;2023-05-10T12:03:39;8.68;;;6.35;;
14526;SDS011;7350;51.208;4.238;2023-05-10T12:06:06;8.73;;;6.30;;
14526;SDS011;7350;51.208;4.238;2023-05-10T12:08:34;6.63;;;5.93;;
14526;SDS011;7350;51.208;4.238;2023-05-10T12:11:04;6.53;;;5.85;;
14526;SDS011;7350;51.208;4.238;2023-05-10T12:13:37;7.20;;;6.28;;
14526;SDS011;7350;51.208;4.238;2023-05-10T12:16:13;6.53;;;5.80;;
14526;SDS011;7350;51.208;4.238;2023-05-10T12:18:42;6.47;;;5.82;;
14526;SDS011;7350;51.208;4.238;2023-05-10T12:21:09;6.45;;;5.85;;
14526;SDS011;7350;51.208;4.238;2023-05-10T12:23:37;7.97;;;6.18;;
14526;SDS011;7350;51.208;4.238;2023-05-10T12:26:05;7.85;;;5.38;;
14526;SDS011;7350;51.208;4.238;2023-05-10T12:28:33;6.20;;;5.60;;
14526;SDS011;7350;51.208;4.238;2023-05-10T12:31:00;6.40;;;5.80;;
14526;SDS011;7350;51.208;4.238;2023-05-10T12:33:36;5.70;;;5.07;;
14526;SDS011;7350;51.208;4.238;2023-05-10T12:36:06;6.43;;;5.78;;
14526;SDS011;7350;51.208;4.238;2023-05-10T12:38:34;6.78;;;5.70;;
14526;SDS011;7350;51.208;4.238;2023-05-10T12:41:03;6.07;;;5.47;;
14526;SDS011;7350;51.208;4.238;2023-05-10T12:43:31;6.00;;;5.50;;
14526;SDS011;7350;51.208;4.238;2023-05-10T12:45:59;7.30;;;5.57;;
14526;SDS011;7350;51.208;4.238;2023-05-10T12:48:31;6.78;;;5.60;;
14526;SDS011;7350;51.208;4.238;2023-05-10T12:51:00;6.38;;;5.43;;
14526;SDS011;7350;51.208;4.238;2023-05-10T12:53:27;7.00;;;5.47;;
14526;SDS011;7350;51.208;4.238;2023-05-10T12:55:55;5.80;;;5.30;;
14526;SDS011;7350;51.208;4.238;2023-05-10T12:58:22;5.90;;;5.32;;
14526;SDS011;7350;51.208;4.238;2023-05-10T13:00:49;6.47;;;5.25;;
14526;SDS011;7350;51.208;4.238;2023-05-10T13:03:17;5.90;;;5.35;;
14526;SDS011;7350;51.208;4.238;2023-05-10T13:05:44;5.65;;;5.10;;
14526;SDS011;7350;51.208;4.238;2023-05-10T13:08:13;6.22;;;5.60;;
14526;SDS011;7350;51.208;4.238;2023-05-10T13:10:40;6.18;;;5.47;;
14526;SDS011;7350;51.208;4.238;2023-05-10T13:13:07;5.88;;;5.38;;
14526;SDS011;7350;51.208;4.238;2023-05-10T13:15:34;5.80;;;5.30;;
14526;SDS011;7350;51.208;4.238;2023-05-10T13:18:02;5.70;;;4.88;;
14526;SDS011;7350;51.208;4.238;2023-05-10T13:20:29;5.72;;;5.18;;
14526;SDS011;7350;51.208;4.238;2023-05-10T13:22:56;6.38;;;5.25;;
14526;SDS011;7350;51.208;4.238;2023-05-10T13:25:24;5.78;;;5.28;;
14526;SDS011;7350;51.208;4.238;2023-05-10T13:27:51;7.20;;;5.47;;
14526;SDS011;7350;51.208;4.238;2023-05-10T13:30:18;6.32;;;5.22;;
14526;SDS011;7350;51.208;4.238;2023-05-10T13:32:45;5.72;;;5.20;;
14526;SDS011;7350;51.208;4.238;2023-05-10T13:35:12;5.45;;;4.95;;
14526;SDS011;7350;51.208;4.238;2023-05-10T13:37:39;5.05;;;4.55;;
14526;SDS011;7350;51.208;4.238;2023-05-10T13:40:06;5.95;;;4.82;;
14526;SDS011;7350;51.208;4.238;2023-05-10T13:42:35;5.78;;;5.05;;
14526;SDS011;7350;51.208;4.238;2023-05-10T13:45:02;5.35;;;4.85;;
14526;SDS011;7350;51.208;4.238;2023-05-10T13:47:30;5.40;;;4.90;;
14526;SDS011;7350;51.208;4.238;2023-05-10T13:49:57;5.65;;;4.85;;
14526;SDS011;7350;51.208;4.238;2023-05-10T13:52:24;6.00;;;5.00;;
14526;SDS011;7350;51.208;4.238;2023-05-10T13:54:51;6.25;;;5.65;;
14526;SDS011;7350;51.208;4.238;2023-05-10T13:57:19;6.90;;;5.20;;
14526;SDS011;7350;51.208;4.238;2023-05-10T13:59:48;6.20;;;4.70;;
14526;SDS011;7350;51.208;4.238;2023-05-10T14:02:15;10.18;;;5.13;;
14526;SDS011;7350;51.208;4.238;2023-05-10T14:04:42;7.03;;;5.32;;
14526;SDS011;7350;51.208;4.238;2023-05-10T14:07:09;5.78;;;5.25;;
14526;SDS011;7350;51.208;4.238;2023-05-10T14:09:36;6.07;;;5.47;;
14526;SDS011;7350;51.208;4.238;2023-05-10T14:12:03;6.03;;;5.38;;
14526;SDS011;7350;51.208;4.238;2023-05-10T14:14:30;7.53;;;5.40;;
14526;SDS011;7350;51.208;4.238;2023-05-10T14:16:58;6.80;;;5.30;;
14526;SDS011;7350;51.208;4.238;2023-05-10T14:19:25;5.43;;;4.93;;
14526;SDS011;7350;51.208;4.238;2023-05-10T14:21:52;10.00;;;5.88;;
14526;SDS011;7350;51.208;4.238;2023-05-10T14:24:19;6.07;;;5.00;;
14526;SDS011;7350;51.208;4.238;2023-05-10T14:26:46;6.55;;;4.78;;
14526;SDS011;7350;51.208;4.238;2023-05-10T14:29:13;7.90;;;5.13;;
14526;SDS011;7350;51.208;4.238;2023-05-10T14:31:40;6.88;;;5.43;;
14526;SDS011;7350;51.208;4.238;2023-05-10T14:34:09;7.60;;;4.93;;
14526;SDS011;7350;51.208;4.238;2023-05-10T14:36:35;8.68;;;5.57;;
14526;SDS011;7350;51.208;4.238;2023-05-10T14:39:02;6.22;;;5.00;;
14526;SDS011;7350;51.208;4.238;2023-05-10T14:41:30;6.85;;;4.40;;
14526;SDS011;7350;51.208;4.238;2023-05-10T14:43:57;7.10;;;5.15;;
14526;SDS011;7350;51.208;4.238;2023-05-10T14:46:24;10.02;;;5.38;;
14526;SDS011;7350;51.208;4.238;2023-05-10T14:48:51;6.45;;;4.63;;
14526;SDS011;7350;51.208;4.238;2023-05-10T14:51:19;7.13;;;4.65;;
14526;SDS011;7350;51.208;4.238;2023-05-10T14:53:47;6.22;;;4.82;;
14526;SDS011;7350;51.208;4.238;2023-05-10T14:56:14;6.32;;;4.32;;
14526;SDS011;7350;51.208;4.238;2023-05-10T14:58:41;7.13;;;4.60;;
14526;SDS011;7350;51.208;4.238;2023-05-10T15:01:08;6.32;;;4.70;;
14526;SDS011;7350;51.208;4.238;2023-05-10T15:03:35;7.65;;;4.47;;
14526;SDS011;7350;51.208;4.238;2023-05-10T15:06:03;7.55;;;4.43;;
14526;SDS011;7350;51.208;4.238;2023-05-10T15:08:31;6.53;;;4.53;;
14526;SDS011;7350;51.208;4.238;2023-05-10T15:10:58;6.85;;;4.28;;
14526;SDS011;7350;51.208;4.238;2023-05-10T15:13:25;8.48;;;4.30;;
14526;SDS011;7350;51.208;4.238;2023-05-10T15:15:52;6.15;;;4.18;;
14526;SDS011;7350;51.208;4.238;2023-05-10T15:18:19;5.75;;;3.90;;
14526;SDS011;7350;51.208;4.238;2023-05-10T15:20:46;11.32;;;5.43;;
14526;SDS011;7350;51.208;4.238;2023-05-10T15:23:13;8.85;;;5.18;;
14526;SDS011;7350;51.208;4.238;2023-05-10T15:25:42;8.63;;;4.80;;
14526;SDS011;7350;51.208;4.238;2023-05-10T15:28:08;7.07;;;4.38;;
14526;SDS011;7350;51.208;4.238;2023-05-10T15:30:35;8.73;;;4.80;;
14526;SDS011;7350;51.208;4.238;2023-05-10T15:33:02;7.63;;;4.40;;
14526;SDS011;7350;51.208;4.238;2023-05-10T15:35:29;6.45;;;4.13;;
14526;SDS011;7350;51.208;4.238;2023-05-10T15:37:56;5.68;;;4.03;;
14526;SDS011;7350;51.208;4.238;2023-05-10T15:40:23;6.20;;;3.92;;
14526;SDS011;7350;51.208;4.238;2023-05-10T15:42:51;7.35;;;3.53;;
14526;SDS011;7350;51.208;4.238;2023-05-10T15:45:18;7.30;;;4.65;;
14526;SDS011;7350;51.208;4.238;2023-05-10T15:47:46;7.88;;;4.50;;